LIEE Airport Information

Runway Information
Runway 14 Length 9196 ft width 148 ft Elevation 9 ft Threshold N/A Heading 138
Runway 32 Length 9196 ft Width 148 ft Elevation 4 ft Threshold N/A Heading 318
Airport Frequencies
Type APP Name CAGLIARI A Frequency 118.75 MHZ
Type GND Name Elmas GND Frequency 125.425 MHZ
Type MISC Name SAR Frequency 123.1 MHZ
Type TWR Name TWR Frequency 120.6 MHZ
Airport Navaids
Type VOR-DME Name Cagliari Frequency 113400 KHZ
Type NDB Name Cagliari Frequency 371 KHZ
Airport Weather Information & NOTAM
ADDS - METARS form results

(0334 UTC 04 December 2022)
Data provider http://aviationweather.gov/metar/data/
 
METAR text: LIEE 040320Z 01003KT 9999 FEW050 11/11 Q1011
Conditions at: LIEE (CAGLIARI/ELMAS(A, IT) observed 0320 UTC 04 December 2022
Temperature: 11.0°C (52°F)
Dewpoint: 11.0°C (52°F) [RH = 100%]
Pressure (altimeter): 29.85 inches Hg (1011.0 mb)
Winds: from the N (10 degrees) at 3 MPH (3 knots; 1.5 m/s)
Visibility: 6 or more miles (10+ km)
Ceiling: at least 12,000 feet AGL
Clouds: few clouds at 5000 feet AGL
Weather: no significant weather observed at this time

METAR text: LIEE 040250Z VRB02KT 9999 FEW050 12/11 Q1012
Conditions at: LIEE (CAGLIARI/ELMAS(A, IT) observed 0250 UTC 04 December 2022
Temperature: 12.0°C (54°F)
Dewpoint: 11.0°C (52°F) [RH = 94%]
Pressure (altimeter): 29.88 inches Hg (1012.0 mb)
Winds: variable direction winds at 2 MPH (2 knots; 1.0 m/s)
Visibility: 6 or more miles (10+ km)
Ceiling: at least 12,000 feet AGL
Clouds: few clouds at 5000 feet AGL
Weather: no significant weather observed at this time

Forecast for: LIEE (CAGLIARI/ELMAS(A, IT)
Text: TAF LIEE 032300Z 0400/0424 33006KT 9999 FEW030
Forecast period: 0000 to 1000 UTC 04 December 2022
Forecast type: FROM: standard forecast or significant change
Winds: from the NNW (330 degrees) at 7 MPH (6 knots; 3.1 m/s)
Visibility: 6 or more miles (10+ km)
Ceiling: at least 12,000 feet AGL
Clouds: few clouds at 3000 feet AGL
Weather: no significant weather forecast for this period
Text: BECMG 0410/0412 19010KT
Forecast period: 1000 UTC 04 December 2022 to 0000 UTC 05 December 2022
Forecast type: BECOMING: Conditions expected to become as follows by 1200 UTC 04 December 2022
Winds: from the S (190 degrees) at 12 MPH (10 knots; 5.1 m/s)
Visibility: 6 or more miles (10+ km)
Ceiling: at least 12,000 feet AGL
Clouds: few clouds at 3000 feet AGL
Weather: no significant weather forecast for this period